sensor_id;sensor_type;location;lat;lon;timestamp;P1;P2;P0
61592;PMS5003;47485;51.378;-1.342;2023-04-15T00:02:17;8;8;
61592;PMS5003;47485;51.378;-1.342;2023-04-15T00:04:45;9;9;
61592;PMS5003;47485;51.378;-1.342;2023-04-15T00:07:13;12;11;
61592;PMS5003;47485;51.378;-1.342;2023-04-15T00:09:40;14;13;
61592;PMS5003;47485;51.378;-1.342;2023-04-15T00:12:07;12;10;
61592;PMS5003;47485;51.378;-1.342;2023-04-15T00:14:34;11;9;
61592;PMS5003;47485;51.378;-1.342;2023-04-15T00:17:02;12;12;
61592;PMS5003;47485;51.378;-1.342;2023-04-15T00:19:30;12;12;
61592;PMS5003;47485;51.378;-1.342;2023-04-15T00:21:58;16;14;
61592;PMS5003;47485;51.378;-1.342;2023-04-15T00:24:26;28;23;
61592;PMS5003;47485;51.378;-1.342;2023-04-15T00:26:52;22;19;
61592;PMS5003;47485;51.378;-1.342;2023-04-15T00:29:20;26;24;
61592;PMS5003;47485;51.378;-1.342;2023-04-15T00:31:47;20;18;
61592;PMS5003;47485;51.378;-1.342;2023-04-15T00:34:14;23;20;
61592;PMS5003;47485;51.378;-1.342;2023-04-15T00:36:42;24;21;
61592;PMS5003;47485;51.378;-1.342;2023-04-15T00:39:09;23;23;
61592;PMS5003;47485;51.378;-1.342;2023-04-15T00:41:36;27;23;
61592;PMS5003;47485;51.378;-1.342;2023-04-15T00:44:04;26;23;
61592;PMS5003;47485;51.378;-1.342;2023-04-15T00:46:32;26;23;
61592;PMS5003;47485;51.378;-1.342;2023-04-15T00:49:01;23;21;
61592;PMS5003;47485;51.378;-1.342;2023-04-15T00:51:29;24;22;
61592;PMS5003;47485;51.378;-1.342;2023-04-15T00:53:56;25;25;
61592;PMS5003;47485;51.378;-1.342;2023-04-15T00:56:24;30;25;
61592;PMS5003;47485;51.378;-1.342;2023-04-15T00:58:52;31;26;
61592;PMS5003;47485;51.378;-1.342;2023-04-15T01:01:20;24;22;
61592;PMS5003;47485;51.378;-1.342;2023-04-15T01:03:47;26;25;
61592;PMS5003;47485;51.378;-1.342;2023-04-15T01:06:16;24;23;
61592;PMS5003;47485;51.378;-1.342;2023-04-15T01:08:43;24;23;
61592;PMS5003;47485;51.378;-1.342;2023-04-15T01:11:11;21;21;
61592;PMS5003;47485;51.378;-1.342;2023-04-15T01:13:39;24;21;
61592;PMS5003;47485;51.378;-1.342;2023-04-15T01:16:06;21;19;
61592;PMS5003;47485;51.378;-1.342;2023-04-15T01:18:34;20;18;
61592;PMS5003;47485;51.378;-1.342;2023-04-15T01:21:02;24;21;
61592;PMS5003;47485;51.378;-1.342;2023-04-15T01:23:31;23;23;
61592;PMS5003;47485;51.378;-1.342;2023-04-15T01:26:01;22;22;
61592;PMS5003;47485;51.378;-1.342;2023-04-15T01:28:29;20;19;
61592;PMS5003;47485;51.378;-1.342;2023-04-15T01:31:05;25;21;
61592;PMS5003;47485;51.378;-1.342;2023-04-15T01:33:33;21;19;
61592;PMS5003;47485;51.378;-1.342;2023-04-15T01:36:00;27;27;
61592;PMS5003;47485;51.378;-1.342;2023-04-15T01:38:27;30;28;
61592;PMS5003;47485;51.378;-1.342;2023-04-15T01:40:56;31;26;
61592;PMS5003;47485;51.378;-1.342;2023-04-15T01:43:23;27;27;
61592;PMS5003;47485;51.378;-1.342;2023-04-15T01:45:50;29;26;
61592;PMS5003;47485;51.378;-1.342;2023-04-15T01:48:18;34;30;
61592;PMS5003;47485;51.378;-1.342;2023-04-15T01:50:45;34;30;
61592;PMS5003;47485;51.378;-1.342;2023-04-15T01:53:13;37;36;
61592;PMS5003;47485;51.378;-1.342;2023-04-15T01:55:40;33;31;
61592;PMS5003;47485;51.378;-1.342;2023-04-15T01:58:08;29;28;
61592;PMS5003;47485;51.378;-1.342;2023-04-15T02:00:34;30;28;
61592;PMS5003;47485;51.378;-1.342;2023-04-15T02:03:01;33;32;
61592;PMS5003;47485;51.378;-1.342;2023-04-15T02:05:28;30;26;
61592;PMS5003;47485;51.378;-1.342;2023-04-15T02:07:56;26;24;
61592;PMS5003;47485;51.378;-1.342;2023-04-15T02:10:23;32;30;
61592;PMS5003;47485;51.378;-1.342;2023-04-15T02:12:50;32;31;
61592;PMS5003;47485;51.378;-1.342;2023-04-15T02:15:17;35;32;
61592;PMS5003;47485;51.378;-1.342;2023-04-15T02:17:45;28;27;
61592;PMS5003;47485;51.378;-1.342;2023-04-15T02:20:13;35;31;
61592;PMS5003;47485;51.378;-1.342;2023-04-15T02:22:40;37;34;
61592;PMS5003;47485;51.378;-1.342;2023-04-15T02:25:07;26;20;
61592;PMS5003;47485;51.378;-1.342;2023-04-15T02:27:35;27;23;
61592;PMS5003;47485;51.378;-1.342;2023-04-15T02:30:02;34;31;
61592;PMS5003;47485;51.378;-1.342;2023-04-15T02:32:30;40;37;
61592;PMS5003;47485;51.378;-1.342;2023-04-15T02:35:01;24;24;
61592;PMS5003;47485;51.378;-1.342;2023-04-15T02:37:29;33;31;
61592;PMS5003;47485;51.378;-1.342;2023-04-15T02:39:57;33;31;
61592;PMS5003;47485;51.378;-1.342;2023-04-15T02:42:24;35;28;
61592;PMS5003;47485;51.378;-1.342;2023-04-15T02:44:51;28;28;
61592;PMS5003;47485;51.378;-1.342;2023-04-15T02:47:18;25;25;
61592;PMS5003;47485;51.378;-1.342;2023-04-15T02:49:46;37;33;
61592;PMS5003;47485;51.378;-1.342;2023-04-15T02:52:13;27;26;
61592;PMS5003;47485;51.378;-1.342;2023-04-15T02:54:40;27;24;
61592;PMS5003;47485;51.378;-1.342;2023-04-15T02:57:07;24;22;
61592;PMS5003;47485;51.378;-1.342;2023-04-15T02:59:34;29;28;
61592;PMS5003;47485;51.378;-1.342;2023-04-15T03:02:01;36;33;
61592;PMS5003;47485;51.378;-1.342;2023-04-15T03:04:29;34;33;
61592;PMS5003;47485;51.378;-1.342;2023-04-15T03:06:56;35;32;
61592;PMS5003;47485;51.378;-1.342;2023-04-15T03:09:23;30;28;
61592;PMS5003;47485;51.378;-1.342;2023-04-15T03:11:51;31;27;
61592;PMS5003;47485;51.378;-1.342;2023-04-15T03:14:18;32;28;
61592;PMS5003;47485;51.378;-1.342;2023-04-15T03:16:46;33;32;
61592;PMS5003;47485;51.378;-1.342;2023-04-15T03:19:14;29;29;
61592;PMS5003;47485;51.378;-1.342;2023-04-15T03:21:41;34;34;
61592;PMS5003;47485;51.378;-1.342;2023-04-15T03:24:08;30;28;
61592;PMS5003;47485;51.378;-1.342;2023-04-15T03:26:35;35;32;
61592;PMS5003;47485;51.378;-1.342;2023-04-15T03:29:03;30;27;
61592;PMS5003;47485;51.378;-1.342;2023-04-15T03:31:29;35;31;
61592;PMS5003;47485;51.378;-1.342;2023-04-15T03:33:57;32;28;
61592;PMS5003;47485;51.378;-1.342;2023-04-15T03:36:24;28;26;
61592;PMS5003;47485;51.378;-1.342;2023-04-15T03:38:52;33;30;
61592;PMS5003;47485;51.378;-1.342;2023-04-15T03:41:19;35;32;
61592;PMS5003;47485;51.378;-1.342;2023-04-15T03:43:46;41;35;
61592;PMS5003;47485;51.378;-1.342;2023-04-15T03:46:13;29;29;
61592;PMS5003;47485;51.378;-1.342;2023-04-15T03:48:40;37;34;
61592;PMS5003;47485;51.378;-1.342;2023-04-15T03:51:08;34;33;
61592;PMS5003;47485;51.378;-1.342;2023-04-15T03:53:35;39;36;
61592;PMS5003;47485;51.378;-1.342;2023-04-15T03:56:03;34;29;
61592;PMS5003;47485;51.378;-1.342;2023-04-15T03:58:30;41;35;
61592;PMS5003;47485;51.378;-1.342;2023-04-15T04:00:57;39;33;
61592;PMS5003;47485;51.378;-1.342;2023-04-15T04:03:25;35;33;
61592;PMS5003;47485;51.378;-1.342;2023-04-15T04:05:52;37;32;
61592;PMS5003;47485;51.378;-1.342;2023-04-15T04:08:19;36;34;
61592;PMS5003;47485;51.378;-1.342;2023-04-15T04:10:47;44;38;
61592;PMS5003;47485;51.378;-1.342;2023-04-15T04:13:14;30;28;
61592;PMS5003;47485;51.378;-1.342;2023-04-15T04:15:41;31;27;
61592;PMS5003;47485;51.378;-1.342;2023-04-15T04:18:08;29;26;
61592;PMS5003;47485;51.378;-1.342;2023-04-15T04:20:35;29;26;
61592;PMS5003;47485;51.378;-1.342;2023-04-15T04:23:03;38;33;
61592;PMS5003;47485;51.378;-1.342;2023-04-15T04:25:29;25;25;
61592;PMS5003;47485;51.378;-1.342;2023-04-15T04:27:56;31;29;
61592;PMS5003;47485;51.378;-1.342;2023-04-15T04:30:24;31;29;
61592;PMS5003;47485;51.378;-1.342;2023-04-15T04:32:51;32;29;
61592;PMS5003;47485;51.378;-1.342;2023-04-15T04:35:19;30;28;
61592;PMS5003;47485;51.378;-1.342;2023-04-15T04:37:46;30;30;
61592;PMS5003;47485;51.378;-1.342;2023-04-15T04:40:13;32;29;
61592;PMS5003;47485;51.378;-1.342;2023-04-15T04:42:40;26;24;
61592;PMS5003;47485;51.378;-1.342;2023-04-15T04:45:08;37;29;
61592;PMS5003;47485;51.378;-1.342;2023-04-15T04:47:36;28;28;
61592;PMS5003;47485;51.378;-1.342;2023-04-15T04:50:03;36;28;
61592;PMS5003;47485;51.378;-1.342;2023-04-15T04:52:30;33;28;
61592;PMS5003;47485;51.378;-1.342;2023-04-15T04:54:57;31;31;
61592;PMS5003;47485;51.378;-1.342;2023-04-15T04:57:24;36;31;
61592;PMS5003;47485;51.378;-1.342;2023-04-15T04:59:51;43;35;
61592;PMS5003;47485;51.378;-1.342;2023-04-15T05:02:18;38;33;
61592;PMS5003;47485;51.378;-1.342;2023-04-15T05:04:46;39;38;
61592;PMS5003;47485;51.378;-1.342;2023-04-15T05:07:13;41;38;
61592;PMS5003;47485;51.378;-1.342;2023-04-15T05:09:40;44;40;
61592;PMS5003;47485;51.378;-1.342;2023-04-15T05:12:07;41;41;
61592;PMS5003;47485;51.378;-1.342;2023-04-15T05:14:35;43;37;
61592;PMS5003;47485;51.378;-1.342;2023-04-15T05:17:02;38;35;
61592;PMS5003;47485;51.378;-1.342;2023-04-15T05:19:29;44;40;
61592;PMS5003;47485;51.378;-1.342;2023-04-15T05:21:56;41;35;
61592;PMS5003;47485;51.378;-1.342;2023-04-15T05:24:23;47;42;
61592;PMS5003;47485;51.378;-1.342;2023-04-15T05:26:50;47;41;
61592;PMS5003;47485;51.378;-1.342;2023-04-15T05:29:17;40;36;
61592;PMS5003;47485;51.378;-1.342;2023-04-15T05:31:44;39;33;
61592;PMS5003;47485;51.378;-1.342;2023-04-15T05:34:12;49;47;
61592;PMS5003;47485;51.378;-1.342;2023-04-15T05:36:39;44;39;
61592;PMS5003;47485;51.378;-1.342;2023-04-15T05:39:06;40;36;
61592;PMS5003;47485;51.378;-1.342;2023-04-15T05:41:34;42;36;
61592;PMS5003;47485;51.378;-1.342;2023-04-15T05:44:01;38;33;
61592;PMS5003;47485;51.378;-1.342;2023-04-15T05:46:28;43;33;
61592;PMS5003;47485;51.378;-1.342;2023-04-15T05:48:56;49;43;
61592;PMS5003;47485;51.378;-1.342;2023-04-15T05:51:23;37;35;
61592;PMS5003;47485;51.378;-1.342;2023-04-15T05:53:49;47;41;
61592;PMS5003;47485;51.378;-1.342;2023-04-15T05:56:17;43;36;
61592;PMS5003;47485;51.378;-1.342;2023-04-15T05:58:44;42;37;
61592;PMS5003;47485;51.378;-1.342;2023-04-15T06:01:12;38;35;
61592;PMS5003;47485;51.378;-1.342;2023-04-15T06:03:39;40;33;
61592;PMS5003;47485;51.378;-1.342;2023-04-15T06:06:06;39;36;
61592;PMS5003;47485;51.378;-1.342;2023-04-15T06:08:34;43;36;
61592;PMS5003;47485;51.378;-1.342;2023-04-15T06:11:01;37;36;
61592;PMS5003;47485;51.378;-1.342;2023-04-15T06:13:28;44;38;
61592;PMS5003;47485;51.378;-1.342;2023-04-15T06:15:55;30;27;
61592;PMS5003;47485;51.378;-1.342;2023-04-15T06:18:23;38;33;
61592;PMS5003;47485;51.378;-1.342;2023-04-15T06:20:49;36;28;
61592;PMS5003;47485;51.378;-1.342;2023-04-15T06:23:17;37;35;
61592;PMS5003;47485;51.378;-1.342;2023-04-15T06:25:44;33;30;
61592;PMS5003;47485;51.378;-1.342;2023-04-15T06:28:11;29;28;
61592;PMS5003;47485;51.378;-1.342;2023-04-15T06:30:38;36;30;
61592;PMS5003;47485;51.378;-1.342;2023-04-15T06:33:05;38;31;
61592;PMS5003;47485;51.378;-1.342;2023-04-15T06:35:32;32;31;
61592;PMS5003;47485;51.378;-1.342;2023-04-15T06:37:59;43;36;
61592;PMS5003;47485;51.378;-1.342;2023-04-15T06:40:27;34;31;
61592;PMS5003;47485;51.378;-1.342;2023-04-15T06:42:54;39;35;
61592;PMS5003;47485;51.378;-1.342;2023-04-15T06:45:21;33;30;
61592;PMS5003;47485;51.378;-1.342;2023-04-15T06:47:49;39;35;
61592;PMS5003;47485;51.378;-1.342;2023-04-15T06:50:16;39;32;
61592;PMS5003;47485;51.378;-1.342;2023-04-15T06:52:43;38;36;
61592;PMS5003;47485;51.378;-1.342;2023-04-15T06:55:10;40;36;
61592;PMS5003;47485;51.378;-1.342;2023-04-15T06:57:37;45;38;
61592;PMS5003;47485;51.378;-1.342;2023-04-15T07:00:05;39;36;
61592;PMS5003;47485;51.378;-1.342;2023-04-15T07:02:33;37;35;
61592;PMS5003;47485;51.378;-1.342;2023-04-15T07:05:00;39;36;
61592;PMS5003;47485;51.378;-1.342;2023-04-15T07:07:27;38;35;
61592;PMS5003;47485;51.378;-1.342;2023-04-15T07:09:54;41;35;
61592;PMS5003;47485;51.378;-1.342;2023-04-15T07:12:21;31;31;
61592;PMS5003;47485;51.378;-1.342;2023-04-15T07:14:48;32;29;
61592;PMS5003;47485;51.378;-1.342;2023-04-15T07:17:16;37;35;
61592;PMS5003;47485;51.378;-1.342;2023-04-15T07:19:43;42;35;
61592;PMS5003;47485;51.378;-1.342;2023-04-15T07:22:10;39;34;
61592;PMS5003;47485;51.378;-1.342;2023-04-15T07:24:36;38;34;
61592;PMS5003;47485;51.378;-1.342;2023-04-15T07:27:03;43;39;
61592;PMS5003;47485;51.378;-1.342;2023-04-15T07:29:29;37;32;
61592;PMS5003;47485;51.378;-1.342;2023-04-15T07:31:56;41;35;
61592;PMS5003;47485;51.378;-1.342;2023-04-15T07:34:23;38;33;
61592;PMS5003;47485;51.378;-1.342;2023-04-15T07:36:50;41;35;
61592;PMS5003;47485;51.378;-1.342;2023-04-15T07:39:17;33;31;
61592;PMS5003;47485;51.378;-1.342;2023-04-15T07:41:44;39;33;
61592;PMS5003;47485;51.378;-1.342;2023-04-15T07:44:11;32;28;
61592;PMS5003;47485;51.378;-1.342;2023-04-15T07:46:38;32;31;
61592;PMS5003;47485;51.378;-1.342;2023-04-15T07:49:05;37;33;
61592;PMS5003;47485;51.378;-1.342;2023-04-15T07:51:32;33;32;
61592;PMS5003;47485;51.378;-1.342;2023-04-15T07:53:58;33;33;
61592;PMS5003;47485;51.378;-1.342;2023-04-15T07:56:25;36;30;
61592;PMS5003;47485;51.378;-1.342;2023-04-15T07:58:52;38;34;
61592;PMS5003;47485;51.378;-1.342;2023-04-15T08:01:19;30;25;
61592;PMS5003;47485;51.378;-1.342;2023-04-15T08:03:47;27;21;
61592;PMS5003;47485;51.378;-1.342;2023-04-15T08:06:14;29;29;
61592;PMS5003;47485;51.378;-1.342;2023-04-15T08:08:41;27;27;
61592;PMS5003;47485;51.378;-1.342;2023-04-15T08:11:09;32;31;
61592;PMS5003;47485;51.378;-1.342;2023-04-15T08:13:36;29;26;
61592;PMS5003;47485;51.378;-1.342;2023-04-15T08:16:12;29;29;
61592;PMS5003;47485;51.378;-1.342;2023-04-15T08:18:43;27;25;
61592;PMS5003;47485;51.378;-1.342;2023-04-15T08:21:10;35;28;
61592;PMS5003;47485;51.378;-1.342;2023-04-15T08:23:37;27;24;
61592;PMS5003;47485;51.378;-1.342;2023-04-15T08:26:05;31;27;
61592;PMS5003;47485;51.378;-1.342;2023-04-15T08:28:32;31;26;
61592;PMS5003;47485;51.378;-1.342;2023-04-15T08:30:58;32;31;
61592;PMS5003;47485;51.378;-1.342;2023-04-15T08:33:26;22;20;
61592;PMS5003;47485;51.378;-1.342;2023-04-15T08:35:53;23;22;
61592;PMS5003;47485;51.378;-1.342;2023-04-15T08:38:20;28;26;
61592;PMS5003;47485;51.378;-1.342;2023-04-15T08:40:47;23;22;
61592;PMS5003;47485;51.378;-1.342;2023-04-15T08:43:18;20;20;
61592;PMS5003;47485;51.378;-1.342;2023-04-15T08:45:48;22;17;
61592;PMS5003;47485;51.378;-1.342;2023-04-15T08:48:16;20;18;
61592;PMS5003;47485;51.378;-1.342;2023-04-15T08:50:45;21;19;
61592;PMS5003;47485;51.378;-1.342;2023-04-15T08:53:13;19;19;
61592;PMS5003;47485;51.378;-1.342;2023-04-15T08:55:41;21;18;
61592;PMS5003;47485;51.378;-1.342;2023-04-15T08:58:10;18;17;
61592;PMS5003;47485;51.378;-1.342;2023-04-15T09:00:38;21;19;
61592;PMS5003;47485;51.378;-1.342;2023-04-15T09:03:05;18;17;
61592;PMS5003;47485;51.378;-1.342;2023-04-15T09:05:34;19;18;
61592;PMS5003;47485;51.378;-1.342;2023-04-15T09:08:01;24;19;
61592;PMS5003;47485;51.378;-1.342;2023-04-15T09:10:30;17;17;
61592;PMS5003;47485;51.378;-1.342;2023-04-15T09:12:58;21;20;
61592;PMS5003;47485;51.378;-1.342;2023-04-15T09:15:26;21;20;
61592;PMS5003;47485;51.378;-1.342;2023-04-15T09:17:52;22;18;
61592;PMS5003;47485;51.378;-1.342;2023-04-15T09:20:20;21;21;
61592;PMS5003;47485;51.378;-1.342;2023-04-15T09:22:47;21;19;
61592;PMS5003;47485;51.378;-1.342;2023-04-15T09:25:31;21;19;
61592;PMS5003;47485;51.378;-1.342;2023-04-15T09:27:59;20;20;
61592;PMS5003;47485;51.378;-1.342;2023-04-15T09:30:27;15;14;
61592;PMS5003;47485;51.378;-1.342;2023-04-15T09:32:55;21;20;
61592;PMS5003;47485;51.378;-1.342;2023-04-15T09:35:25;17;15;
61592;PMS5003;47485;51.378;-1.342;2023-04-15T09:37:53;18;15;
61592;PMS5003;47485;51.378;-1.342;2023-04-15T09:40:31;20;18;
61592;PMS5003;47485;51.378;-1.342;2023-04-15T09:43:00;21;17;
61592;PMS5003;47485;51.378;-1.342;2023-04-15T09:45:28;20;18;
61592;PMS5003;47485;51.378;-1.342;2023-04-15T09:47:55;20;18;
61592;PMS5003;47485;51.378;-1.342;2023-04-15T09:50:24;15;14;
61592;PMS5003;47485;51.378;-1.342;2023-04-15T09:52:54;19;16;
61592;PMS5003;47485;51.378;-1.342;2023-04-15T09:55:21;16;16;
61592;PMS5003;47485;51.378;-1.342;2023-04-15T09:57:49;19;13;
61592;PMS5003;47485;51.378;-1.342;2023-04-15T10:00:16;20;19;
61592;PMS5003;47485;51.378;-1.342;2023-04-15T10:02:44;19;15;
61592;PMS5003;47485;51.378;-1.342;2023-04-15T10:05:13;16;15;
61592;PMS5003;47485;51.378;-1.342;2023-04-15T10:07:41;16;15;
61592;PMS5003;47485;51.378;-1.342;2023-04-15T10:10:08;15;14;
61592;PMS5003;47485;51.378;-1.342;2023-04-15T10:12:37;17;14;
61592;PMS5003;47485;51.378;-1.342;2023-04-15T10:15:06;14;13;
61592;PMS5003;47485;51.378;-1.342;2023-04-15T10:17:40;17;16;
61592;PMS5003;47485;51.378;-1.342;2023-04-15T10:20:09;17;15;
61592;PMS5003;47485;51.378;-1.342;2023-04-15T10:22:38;20;18;
61592;PMS5003;47485;51.378;-1.342;2023-04-15T10:25:08;18;17;
61592;PMS5003;47485;51.378;-1.342;2023-04-15T10:27:38;15;13;
61592;PMS5003;47485;51.378;-1.342;2023-04-15T10:30:06;20;18;
61592;PMS5003;47485;51.378;-1.342;2023-04-15T10:32:33;18;18;
61592;PMS5003;47485;51.378;-1.342;2023-04-15T10:35:02;19;19;
61592;PMS5003;47485;51.378;-1.342;2023-04-15T10:37:33;19;17;
61592;PMS5003;47485;51.378;-1.342;2023-04-15T10:40:00;17;15;
61592;PMS5003;47485;51.378;-1.342;2023-04-15T10:42:49;14;14;
61592;PMS5003;47485;51.378;-1.342;2023-04-15T10:45:17;13;13;
61592;PMS5003;47485;51.378;-1.342;2023-04-15T10:47:44;17;15;
61592;PMS5003;47485;51.378;-1.342;2023-04-15T10:50:11;17;16;
61592;PMS5003;47485;51.378;-1.342;2023-04-15T10:52:39;13;13;
61592;PMS5003;47485;51.378;-1.342;2023-04-15T10:55:11;21;21;
61592;PMS5003;47485;51.378;-1.342;2023-04-15T10:57:40;15;15;
61592;PMS5003;47485;51.378;-1.342;2023-04-15T11:00:10;16;15;
61592;PMS5003;47485;51.378;-1.342;2023-04-15T11:02:41;16;15;
61592;PMS5003;47485;51.378;-1.342;2023-04-15T11:05:10;18;15;
61592;PMS5003;47485;51.378;-1.342;2023-04-15T11:07:39;16;15;
61592;PMS5003;47485;51.378;-1.342;2023-04-15T11:10:49;15;15;
61592;PMS5003;47485;51.378;-1.342;2023-04-15T11:13:20;17;16;
61592;PMS5003;47485;51.378;-1.342;2023-04-15T11:15:48;16;14;
61592;PMS5003;47485;51.378;-1.342;2023-04-15T11:18:17;17;17;
61592;PMS5003;47485;51.378;-1.342;2023-04-15T11:20:46;12;12;
61592;PMS5003;47485;51.378;-1.342;2023-04-15T11:23:16;18;17;
61592;PMS5003;47485;51.378;-1.342;2023-04-15T11:25:44;16;15;
61592;PMS5003;47485;51.378;-1.342;2023-04-15T11:28:12;14;13;
61592;PMS5003;47485;51.378;-1.342;2023-04-15T11:30:40;15;14;
61592;PMS5003;47485;51.378;-1.342;2023-04-15T11:33:09;13;12;
61592;PMS5003;47485;51.378;-1.342;2023-04-15T11:35:37;19;16;
61592;PMS5003;47485;51.378;-1.342;2023-04-15T11:38:07;13;13;
61592;PMS5003;47485;51.378;-1.342;2023-04-15T11:40:36;13;13;
61592;PMS5003;47485;51.378;-1.342;2023-04-15T11:43:05;15;13;
61592;PMS5003;47485;51.378;-1.342;2023-04-15T11:45:34;17;16;
61592;PMS5003;47485;51.378;-1.342;2023-04-15T11:48:04;13;12;
61592;PMS5003;47485;51.378;-1.342;2023-04-15T11:50:32;17;15;
61592;PMS5003;47485;51.378;-1.342;2023-04-15T11:53:01;10;10;
61592;PMS5003;47485;51.378;-1.342;2023-04-15T11:55:30;15;13;
61592;PMS5003;47485;51.378;-1.342;2023-04-15T11:58:07;15;12;
61592;PMS5003;47485;51.378;-1.342;2023-04-15T12:00:37;15;12;
61592;PMS5003;47485;51.378;-1.342;2023-04-15T12:03:14;18;18;
61592;PMS5003;47485;51.378;-1.342;2023-04-15T12:06:17;11;10;
61592;PMS5003;47485;51.378;-1.342;2023-04-15T12:08:50;10;10;
61592;PMS5003;47485;51.378;-1.342;2023-04-15T12:11:19;13;13;
61592;PMS5003;47485;51.378;-1.342;2023-04-15T12:13:48;15;15;
61592;PMS5003;47485;51.378;-1.342;2023-04-15T12:16:16;14;14;
61592;PMS5003;47485;51.378;-1.342;2023-04-15T12:18:44;13;13;
61592;PMS5003;47485;51.378;-1.342;2023-04-15T12:21:12;13;13;
61592;PMS5003;47485;51.378;-1.342;2023-04-15T12:23:39;15;13;
61592;PMS5003;47485;51.378;-1.342;2023-04-15T12:26:14;14;12;
61592;PMS5003;47485;51.378;-1.342;2023-04-15T12:28:40;11;11;
61592;PMS5003;47485;51.378;-1.342;2023-04-15T12:31:08;12;10;
61592;PMS5003;47485;51.378;-1.342;2023-04-15T12:33:36;14;13;
61592;PMS5003;47485;51.378;-1.342;2023-04-15T12:36:03;10;10;
61592;PMS5003;47485;51.378;-1.342;2023-04-15T12:38:30;11;9;
61592;PMS5003;47485;51.378;-1.342;2023-04-15T12:40:57;12;11;
61592;PMS5003;47485;51.378;-1.342;2023-04-15T12:43:25;12;11;
61592;PMS5003;47485;51.378;-1.342;2023-04-15T12:45:52;17;15;
61592;PMS5003;47485;51.378;-1.342;2023-04-15T12:48:20;12;12;
61592;PMS5003;47485;51.378;-1.342;2023-04-15T12:50:47;10;10;
61592;PMS5003;47485;51.378;-1.342;2023-04-15T12:53:14;12;11;
61592;PMS5003;47485;51.378;-1.342;2023-04-15T12:55:41;13;12;
61592;PMS5003;47485;51.378;-1.342;2023-04-15T12:58:08;14;12;
61592;PMS5003;47485;51.378;-1.342;2023-04-15T13:00:34;14;11;
61592;PMS5003;47485;51.378;-1.342;2023-04-15T13:03:02;13;13;
61592;PMS5003;47485;51.378;-1.342;2023-04-15T13:05:29;12;11;
61592;PMS5003;47485;51.378;-1.342;2023-04-15T13:07:56;11;10;
61592;PMS5003;47485;51.378;-1.342;2023-04-15T13:10:23;11;11;
61592;PMS5003;47485;51.378;-1.342;2023-04-15T13:12:50;15;13;
61592;PMS5003;47485;51.378;-1.342;2023-04-15T13:15:17;15;14;
61592;PMS5003;47485;51.378;-1.342;2023-04-15T13:17:45;12;11;
61592;PMS5003;47485;51.378;-1.342;2023-04-15T13:20:13;14;13;
61592;PMS5003;47485;51.378;-1.342;2023-04-15T13:22:40;10;10;
61592;PMS5003;47485;51.378;-1.342;2023-04-15T13:25:07;9;9;
61592;PMS5003;47485;51.378;-1.342;2023-04-15T13:27:34;12;12;
61592;PMS5003;47485;51.378;-1.342;2023-04-15T13:30:01;15;14;
61592;PMS5003;47485;51.378;-1.342;2023-04-15T13:32:28;13;13;
61592;PMS5003;47485;51.378;-1.342;2023-04-15T13:34:55;14;12;
61592;PMS5003;47485;51.378;-1.342;2023-04-15T13:37:24;12;12;
61592;PMS5003;47485;51.378;-1.342;2023-04-15T13:39:51;9;9;
61592;PMS5003;47485;51.378;-1.342;2023-04-15T13:42:19;10;9;
61592;PMS5003;47485;51.378;-1.342;2023-04-15T13:44:48;12;11;
61592;PMS5003;47485;51.378;-1.342;2023-04-15T13:47:16;12;11;
61592;PMS5003;47485;51.378;-1.342;2023-04-15T13:49:44;14;13;
61592;PMS5003;47485;51.378;-1.342;2023-04-15T13:52:12;15;12;
61592;PMS5003;47485;51.378;-1.342;2023-04-15T13:54:40;17;15;
61592;PMS5003;47485;51.378;-1.342;2023-04-15T13:57:07;14;12;
61592;PMS5003;47485;51.378;-1.342;2023-04-15T13:59:34;12;12;
61592;PMS5003;47485;51.378;-1.342;2023-04-15T14:02:01;14;13;
61592;PMS5003;47485;51.378;-1.342;2023-04-15T14:04:27;11;9;
61592;PMS5003;47485;51.378;-1.342;2023-04-15T14:06:56;12;12;
61592;PMS5003;47485;51.378;-1.342;2023-04-15T14:09:22;11;10;
61592;PMS5003;47485;51.378;-1.342;2023-04-15T14:11:50;12;12;
61592;PMS5003;47485;51.378;-1.342;2023-04-15T14:14:17;15;14;
61592;PMS5003;47485;51.378;-1.342;2023-04-15T14:16:44;9;9;
61592;PMS5003;47485;51.378;-1.342;2023-04-15T14:19:10;11;11;
61592;PMS5003;47485;51.378;-1.342;2023-04-15T14:21:38;12;12;
61592;PMS5003;47485;51.378;-1.342;2023-04-15T14:24:05;18;17;
61592;PMS5003;47485;51.378;-1.342;2023-04-15T14:26:32;12;10;
61592;PMS5003;47485;51.378;-1.342;2023-04-15T14:28:59;9;9;
61592;PMS5003;47485;51.378;-1.342;2023-04-15T14:31:26;17;17;
61592;PMS5003;47485;51.378;-1.342;2023-04-15T14:33:53;11;11;
61592;PMS5003;47485;51.378;-1.342;2023-04-15T14:36:20;11;9;
61592;PMS5003;47485;51.378;-1.342;2023-04-15T14:38:48;11;11;
61592;PMS5003;47485;51.378;-1.342;2023-04-15T14:41:15;9;9;
61592;PMS5003;47485;51.378;-1.342;2023-04-15T14:43:42;11;11;
61592;PMS5003;47485;51.378;-1.342;2023-04-15T14:46:09;11;11;
61592;PMS5003;47485;51.378;-1.342;2023-04-15T14:48:36;12;10;
61592;PMS5003;47485;51.378;-1.342;2023-04-15T14:51:04;9;8;
61592;PMS5003;47485;51.378;-1.342;2023-04-15T14:53:31;8;8;
61592;PMS5003;47485;51.378;-1.342;2023-04-15T14:55:59;8;7;
61592;PMS5003;47485;51.378;-1.342;2023-04-15T14:58:25;8;7;
61592;PMS5003;47485;51.378;-1.342;2023-04-15T15:00:52;8;7;
61592;PMS5003;47485;51.378;-1.342;2023-04-15T15:03:20;8;8;
61592;PMS5003;47485;51.378;-1.342;2023-04-15T15:05:47;9;9;
61592;PMS5003;47485;51.378;-1.342;2023-04-15T15:08:14;8;8;
61592;PMS5003;47485;51.378;-1.342;2023-04-15T15:10:41;12;11;
61592;PMS5003;47485;51.378;-1.342;2023-04-15T15:13:08;13;13;
61592;PMS5003;47485;51.378;-1.342;2023-04-15T15:15:36;12;12;
61592;PMS5003;47485;51.378;-1.342;2023-04-15T15:18:03;11;11;
61592;PMS5003;47485;51.378;-1.342;2023-04-15T15:20:30;9;9;
61592;PMS5003;47485;51.378;-1.342;2023-04-15T15:22:57;9;8;
61592;PMS5003;47485;51.378;-1.342;2023-04-15T15:25:23;13;10;
61592;PMS5003;47485;51.378;-1.342;2023-04-15T15:27:50;14;14;
61592;PMS5003;47485;51.378;-1.342;2023-04-15T15:30:17;12;11;
61592;PMS5003;47485;51.378;-1.342;2023-04-15T15:32:43;11;10;
61592;PMS5003;47485;51.378;-1.342;2023-04-15T15:35:10;8;8;
61592;PMS5003;47485;51.378;-1.342;2023-04-15T15:37:37;11;11;
61592;PMS5003;47485;51.378;-1.342;2023-04-15T15:40:04;9;9;
61592;PMS5003;47485;51.378;-1.342;2023-04-15T15:42:31;11;9;
61592;PMS5003;47485;51.378;-1.342;2023-04-15T15:44:59;9;9;
61592;PMS5003;47485;51.378;-1.342;2023-04-15T15:47:26;11;10;
61592;PMS5003;47485;51.378;-1.342;2023-04-15T15:49:53;9;9;
61592;PMS5003;47485;51.378;-1.342;2023-04-15T15:52:20;10;10;
61592;PMS5003;47485;51.378;-1.342;2023-04-15T15:54:47;10;10;
61592;PMS5003;47485;51.378;-1.342;2023-04-15T15:57:14;11;10;
61592;PMS5003;47485;51.378;-1.342;2023-04-15T15:59:41;8;8;
61592;PMS5003;47485;51.378;-1.342;2023-04-15T16:02:08;11;10;
61592;PMS5003;47485;51.378;-1.342;2023-04-15T16:04:36;9;9;
61592;PMS5003;47485;51.378;-1.342;2023-04-15T16:07:03;8;8;
61592;PMS5003;47485;51.378;-1.342;2023-04-15T16:09:30;8;8;